createdAt,value
2023-05-19T00:00:27.728Z,0.00
2023-05-19T00:01:25.941Z,0.00
2023-05-19T00:02:25.951Z,0.00
2023-05-19T00:03:25.855Z,0.00
2023-05-19T00:04:25.718Z,0.00
2023-05-19T00:05:25.728Z,0.00
2023-05-19T00:06:25.798Z,0.00
2023-05-19T00:07:25.822Z,0.00
2023-05-19T00:08:25.730Z,0.00
2023-05-19T00:09:25.750Z,0.00
2023-05-19T00:10:25.700Z,0.00
2023-05-19T00:11:25.629Z,0.00
2023-05-19T00:12:25.631Z,0.00
2023-05-19T00:13:25.669Z,0.00
2023-05-19T00:14:27.093Z,0.00
2023-05-19T00:15:25.621Z,0.00
2023-05-19T00:16:25.741Z,0.00
2023-05-19T00:17:25.570Z,0.00
2023-05-19T00:18:25.610Z,0.00
2023-05-19T00:19:25.665Z,0.00
2023-05-19T00:20:25.668Z,0.00
2023-05-19T00:21:26.994Z,0.00
2023-05-19T00:22:25.592Z,0.00
2023-05-19T00:23:25.550Z,0.00
2023-05-19T00:24:25.505Z,0.00
2023-05-19T00:25:25.491Z,0.00
2023-05-19T00:26:25.442Z,0.00
2023-05-19T00:27:27.453Z,0.00
2023-05-19T00:28:25.529Z,0.00
2023-05-19T00:29:25.548Z,0.00
2023-05-19T00:30:25.448Z,0.00
2023-05-19T00:31:25.428Z,0.00
2023-05-19T00:32:25.490Z,0.00
2023-05-19T00:33:25.437Z,0.00
2023-05-19T00:34:25.585Z,0.00
2023-05-19T00:35:25.374Z,0.00
2023-05-19T00:36:25.384Z,0.00
2023-05-19T00:37:25.345Z,0.00
2023-05-19T00:38:25.375Z,0.00
2023-05-19T00:39:25.386Z,0.00
2023-05-19T00:40:25.318Z,0.00
2023-05-19T00:41:25.279Z,0.00
2023-05-19T00:42:25.307Z,0.00
2023-05-19T00:43:25.342Z,0.00
2023-05-19T00:44:25.302Z,0.00
2023-05-19T00:45:25.251Z,0.00
2023-05-19T00:46:25.382Z,0.00
2023-05-19T00:47:26.810Z,0.00
2023-05-19T00:48:25.300Z,0.00
2023-05-19T00:49:25.255Z,0.00
2023-05-19T00:50:25.216Z,0.00
2023-05-19T00:51:25.251Z,0.00
2023-05-19T00:52:25.158Z,0.00
2023-05-19T00:53:25.313Z,0.00
2023-05-19T00:54:25.181Z,0.00
2023-05-19T00:55:25.236Z,0.00
2023-05-19T00:56:25.116Z,0.00
2023-05-19T00:57:25.251Z,0.00
2023-05-19T00:58:25.266Z,0.00
2023-05-19T00:59:25.084Z,0.00
2023-05-19T01:00:26.172Z,0.00
2023-05-19T01:01:25.186Z,0.00
2023-05-19T01:02:25.258Z,0.00
2023-05-19T01:03:25.292Z,0.00
2023-05-19T01:04:25.085Z,0.00
2023-05-19T01:05:25.069Z,0.00
2023-05-19T01:06:25.020Z,0.00
2023-05-19T01:07:26.988Z,0.00
2023-05-19T01:08:25.121Z,0.00
2023-05-19T01:09:25.004Z,0.00
2023-05-19T01:10:24.975Z,0.00
2023-05-19T01:11:24.965Z,0.00
2023-05-19T01:12:26.966Z,0.00
2023-05-19T01:13:24.997Z,0.00
2023-05-19T01:14:25.010Z,0.00
2023-05-19T01:15:25.035Z,0.00
2023-05-19T01:16:25.060Z,0.00
2023-05-19T01:17:25.021Z,0.00
2023-05-19T01:18:24.876Z,0.00
2023-05-19T01:19:25.950Z,0.00
2023-05-19T01:20:24.923Z,0.00
2023-05-19T01:21:24.884Z,0.00
2023-05-19T01:22:24.884Z,0.00
2023-05-19T01:23:24.831Z,0.00
2023-05-19T01:24:24.831Z,0.00
2023-05-19T01:25:24.902Z,0.00
2023-05-19T01:26:26.848Z,0.00
2023-05-19T01:27:24.897Z,0.00
2023-05-19T01:28:24.864Z,0.00
2023-05-19T01:29:24.723Z,0.00
2023-05-19T01:30:24.800Z,0.00
2023-05-19T01:31:24.868Z,0.00
2023-05-19T01:32:24.718Z,0.00
2023-05-19T01:33:26.682Z,0.00
2023-05-19T01:34:24.741Z,0.00
2023-05-19T01:35:24.839Z,0.00
2023-05-19T01:36:24.690Z,0.00
2023-05-19T01:37:24.681Z,0.00
2023-05-19T01:38:24.749Z,0.00
2023-05-19T01:39:26.241Z,0.00
2023-05-19T01:40:24.687Z,0.00
2023-05-19T01:41:24.667Z,0.00
2023-05-19T01:42:24.631Z,0.00
2023-05-19T01:43:24.622Z,0.00
2023-05-19T01:44:24.647Z,0.00
2023-05-19T01:45:24.741Z,0.00
2023-05-19T01:46:26.240Z,0.00
2023-05-19T01:47:24.727Z,0.00
2023-05-19T01:48:24.579Z,0.00
2023-05-19T01:49:24.614Z,0.00
2023-05-19T01:50:24.579Z,0.00
2023-05-19T01:51:24.593Z,0.00
2023-05-19T01:52:24.578Z,0.00
2023-05-19T01:53:24.660Z,0.00
2023-05-19T01:54:24.580Z,0.00
2023-05-19T01:55:24.548Z,0.00
2023-05-19T01:56:24.508Z,0.00
2023-05-19T01:57:24.447Z,0.00
2023-05-19T01:58:24.434Z,0.00
2023-05-19T01:59:26.387Z,0.00
2023-05-19T02:00:24.445Z,0.00
2023-05-19T02:01:24.488Z,0.00
2023-05-19T02:02:24.479Z,0.00
2023-05-19T02:03:24.402Z,0.00
2023-05-19T02:04:24.425Z,0.00
2023-05-19T02:05:24.368Z,0.00
2023-05-19T02:06:25.787Z,0.00
2023-05-19T02:07:24.484Z,0.00
2023-05-19T02:08:24.397Z,0.00
2023-05-19T02:09:24.450Z,0.00
2023-05-19T02:10:24.318Z,0.00
2023-05-19T02:11:24.315Z,0.00
2023-05-19T02:12:24.373Z,0.00
2023-05-19T02:13:25.853Z,0.00
2023-05-19T02:14:24.263Z,0.00
2023-05-19T02:15:24.261Z,0.00
2023-05-19T02:16:24.347Z,0.00
2023-05-19T02:17:24.292Z,0.00
2023-05-19T02:18:24.178Z,0.00
2023-05-19T02:19:24.645Z,0.00
2023-05-19T02:20:24.235Z,0.00
2023-05-19T02:21:24.278Z,0.00
2023-05-19T02:22:24.273Z,0.00
2023-05-19T02:23:24.184Z,0.00
2023-05-19T02:24:24.189Z,0.00
2023-05-19T02:25:24.207Z,0.00
2023-05-19T02:26:25.802Z,0.00
2023-05-19T02:27:24.172Z,0.00
2023-05-19T02:28:24.137Z,0.00
2023-05-19T02:29:24.179Z,0.00
2023-05-19T02:30:24.122Z,0.00
2023-05-19T02:31:24.171Z,0.00
2023-05-19T02:32:24.136Z,0.00
2023-05-19T02:33:25.582Z,0.00
2023-05-19T02:34:24.131Z,0.00
2023-05-19T02:35:24.149Z,0.00
2023-05-19T02:36:24.159Z,0.00
2023-05-19T02:37:24.044Z,0.00
2023-05-19T02:38:24.070Z,0.00
2023-05-19T02:39:24.029Z,0.00
2023-05-19T02:40:26.066Z,0.00
2023-05-19T02:41:24.081Z,0.00
2023-05-19T02:42:23.989Z,0.00
2023-05-19T02:43:23.974Z,0.00
2023-05-19T02:44:23.977Z,0.00
2023-05-19T02:45:24.011Z,0.00
2023-05-19T02:46:24.013Z,0.00
2023-05-19T02:47:26.131Z,0.00
2023-05-19T02:48:23.965Z,0.00
2023-05-19T02:49:24.066Z,0.00
2023-05-19T02:50:23.964Z,0.00
2023-05-19T02:51:23.927Z,0.00
2023-05-19T02:52:23.879Z,0.00
2023-05-19T02:53:23.858Z,0.00
2023-05-19T02:54:25.471Z,0.00
2023-05-19T02:55:23.900Z,0.00
2023-05-19T02:56:23.870Z,0.00
2023-05-19T02:57:23.924Z,0.00
2023-05-19T02:58:23.829Z,0.00
2023-05-19T02:59:25.620Z,0.00
2023-05-19T03:00:23.880Z,0.00
2023-05-19T03:01:23.796Z,0.00
2023-05-19T03:02:23.769Z,0.00
2023-05-19T03:03:23.845Z,0.00
2023-05-19T03:04:23.766Z,0.00
2023-05-19T03:05:23.717Z,0.00
2023-05-19T03:06:23.747Z,0.00
2023-05-19T03:07:25.684Z,0.00
2023-05-19T03:08:23.707Z,0.00
2023-05-19T03:09:23.755Z,0.00
2023-05-19T03:10:23.696Z,0.00
2023-05-19T03:11:23.662Z,0.00
2023-05-19T03:12:23.667Z,0.00
2023-05-19T03:13:23.743Z,0.00
2023-05-19T03:14:24.164Z,0.00
2023-05-19T03:15:23.655Z,0.00
2023-05-19T03:16:23.657Z,0.00
2023-05-19T03:17:23.773Z,0.00
2023-05-19T03:18:23.718Z,0.00
2023-05-19T03:19:23.697Z,0.00
2023-05-19T03:20:23.734Z,0.00
2023-05-19T03:21:23.563Z,0.00
2023-05-19T03:22:23.686Z,0.00
2023-05-19T03:23:23.588Z,0.00
2023-05-19T03:24:23.491Z,0.00
2023-05-19T03:25:23.570Z,0.00
2023-05-19T03:26:23.518Z,0.00
2023-05-19T03:27:25.345Z,0.00
2023-05-19T03:28:23.526Z,0.00
2023-05-19T03:29:23.476Z,0.00
2023-05-19T03:30:23.521Z,0.00
2023-05-19T03:31:23.467Z,0.00
2023-05-19T03:32:23.605Z,0.00
2023-05-19T03:33:23.690Z,0.00
2023-05-19T03:34:23.487Z,0.00
2023-05-19T03:35:23.441Z,5.62
2023-05-19T03:36:23.427Z,5.62
2023-05-19T03:37:23.404Z,5.62
2023-05-19T03:38:23.382Z,5.62
2023-05-19T03:39:23.396Z,5.62
2023-05-19T03:40:23.626Z,5.62
2023-05-19T03:41:23.368Z,5.62
2023-05-19T03:42:23.332Z,5.62
2023-05-19T03:43:23.334Z,5.62
2023-05-19T03:44:23.314Z,5.62
2023-05-19T03:45:23.307Z,11.25
2023-05-19T03:46:23.344Z,11.25
2023-05-19T03:47:23.490Z,11.25
2023-05-19T03:48:23.259Z,11.25
2023-05-19T03:49:23.395Z,11.25
2023-05-19T03:50:23.276Z,11.25
2023-05-19T03:51:23.314Z,11.25
2023-05-19T03:52:23.259Z,16.88
2023-05-19T03:53:23.381Z,16.88
2023-05-19T03:54:23.200Z,16.88
2023-05-19T03:55:23.293Z,16.88
2023-05-19T03:56:23.154Z,16.88
2023-05-19T03:57:23.212Z,16.88
2023-05-19T03:58:23.187Z,16.88
2023-05-19T03:59:23.323Z,16.88
2023-05-19T04:00:23.330Z,22.50
2023-05-19T04:01:23.185Z,22.50
2023-05-19T04:02:23.203Z,22.50
2023-05-19T04:03:23.152Z,22.50
2023-05-19T04:04:23.182Z,22.50
2023-05-19T04:05:23.073Z,22.50
2023-05-19T04:06:23.046Z,22.50
2023-05-19T04:07:23.094Z,22.50
2023-05-19T04:08:23.035Z,22.50
2023-05-19T04:09:23.068Z,28.12
2023-05-19T04:10:23.015Z,28.12
2023-05-19T04:11:23.029Z,28.12
2023-05-19T04:12:23.000Z,28.12
2023-05-19T04:13:23.062Z,28.12
2023-05-19T04:14:23.033Z,28.12
2023-05-19T04:15:22.994Z,28.12
2023-05-19T04:16:23.054Z,33.75
2023-05-19T04:17:23.015Z,33.75
2023-05-19T04:18:22.980Z,33.75
2023-05-19T04:19:24.594Z,33.75
2023-05-19T04:20:22.969Z,33.75
2023-05-19T04:21:22.917Z,33.75
2023-05-19T04:22:22.852Z,33.75
2023-05-19T04:23:22.914Z,33.75
2023-05-19T04:24:22.894Z,39.38
2023-05-19T04:25:22.899Z,39.38
2023-05-19T04:26:24.315Z,39.38
2023-05-19T04:27:22.943Z,39.38
2023-05-19T04:28:22.937Z,39.38
2023-05-19T04:29:22.825Z,39.38
2023-05-19T04:30:22.914Z,39.38
2023-05-19T04:31:22.905Z,45.00
2023-05-19T04:32:22.839Z,45.00
2023-05-19T04:33:22.890Z,45.00
2023-05-19T04:34:22.819Z,45.00
2023-05-19T04:35:22.790Z,45.00
2023-05-19T04:36:22.748Z,45.00
2023-05-19T04:37:22.778Z,45.00
2023-05-19T04:38:22.763Z,50.62
2023-05-19T04:39:22.737Z,50.62
2023-05-19T04:40:22.734Z,50.62
2023-05-19T04:41:22.801Z,50.62
2023-05-19T04:42:22.777Z,50.62
2023-05-19T04:43:22.680Z,56.25
2023-05-19T04:44:22.667Z,61.88
2023-05-19T04:45:22.733Z,67.50
2023-05-19T04:46:22.776Z,90.00
2023-05-19T04:47:24.099Z,123.75
2023-05-19T04:48:22.585Z,157.50
2023-05-19T04:49:22.619Z,163.12
2023-05-19T04:50:22.583Z,129.38
2023-05-19T04:51:22.589Z,118.12
2023-05-19T04:52:22.608Z,106.88
2023-05-19T04:53:24.539Z,106.88
2023-05-19T04:54:24.039Z,106.88
2023-05-19T04:55:22.598Z,84.38
2023-05-19T04:56:22.561Z,78.75
2023-05-19T04:57:22.496Z,78.75
2023-05-19T04:58:22.469Z,78.75
2023-05-19T04:59:22.502Z,78.75
2023-05-19T05:00:22.597Z,78.75
2023-05-19T05:01:22.695Z,90.00
2023-05-19T05:02:22.683Z,84.38
2023-05-19T05:03:22.576Z,78.75
2023-05-19T05:04:22.508Z,73.12
2023-05-19T05:05:22.566Z,78.75
2023-05-19T05:06:22.724Z,73.12
2023-05-19T05:07:24.257Z,73.12
2023-05-19T05:08:22.390Z,78.75
2023-05-19T05:09:24.158Z,73.12
2023-05-19T05:10:22.455Z,73.12
2023-05-19T05:11:22.518Z,73.12
2023-05-19T05:12:22.420Z,73.12
2023-05-19T05:13:22.339Z,73.12
2023-05-19T05:14:24.094Z,73.12
2023-05-19T05:15:22.393Z,73.12
2023-05-19T05:16:22.384Z,73.12
2023-05-19T05:17:22.381Z,73.12
2023-05-19T05:18:22.406Z,73.12
2023-05-19T05:19:22.430Z,73.12
2023-05-19T05:20:22.270Z,73.12
2023-05-19T05:21:22.247Z,78.75
2023-05-19T05:22:22.240Z,78.75
2023-05-19T05:23:22.243Z,78.75
2023-05-19T05:24:22.243Z,78.75
2023-05-19T05:25:23.715Z,78.75
2023-05-19T05:26:22.199Z,78.75
2023-05-19T05:27:22.171Z,78.75
2023-05-19T05:28:22.183Z,78.75
2023-05-19T05:29:22.163Z,78.75
2023-05-19T05:30:22.150Z,78.75
2023-05-19T05:31:22.248Z,73.12
2023-05-19T05:32:24.123Z,73.12
2023-05-19T05:33:22.304Z,78.75
2023-05-19T05:34:22.108Z,78.75
2023-05-19T05:35:22.083Z,78.75
2023-05-19T05:36:22.113Z,78.75
2023-05-19T05:37:22.072Z,78.75
2023-05-19T05:38:22.141Z,78.75
2023-05-19T05:39:22.069Z,78.75
2023-05-19T05:40:22.057Z,78.75
2023-05-19T05:41:22.052Z,78.75
2023-05-19T05:42:22.048Z,84.38
2023-05-19T05:43:23.844Z,84.38
2023-05-19T05:44:21.985Z,84.38
2023-05-19T05:45:24.029Z,78.75
2023-05-19T05:46:22.078Z,78.75
2023-05-19T05:47:22.073Z,78.75
2023-05-19T05:48:21.960Z,78.75
2023-05-19T05:49:21.969Z,78.75
2023-05-19T05:50:21.937Z,78.75
2023-05-19T05:51:22.268Z,84.38
2023-05-19T05:52:23.109Z,84.38
2023-05-19T05:53:22.419Z,84.38
2023-05-19T05:54:22.473Z,84.38
2023-05-19T05:55:22.924Z,84.38
2023-05-19T05:56:25.483Z,84.38
2023-05-19T05:57:24.269Z,84.38
2023-05-19T05:58:23.374Z,84.38
2023-05-19T05:59:24.689Z,84.38
2023-05-19T06:00:22.337Z,90.00
2023-05-19T06:01:24.416Z,90.00
2023-05-19T06:02:22.862Z,90.00
2023-05-19T06:03:22.777Z,90.00
2023-05-19T06:04:22.305Z,90.00
2023-05-19T06:05:22.545Z,90.00
2023-05-19T06:06:21.881Z,90.00
2023-05-19T06:07:22.507Z,90.00
2023-05-19T06:08:22.564Z,84.38
2023-05-19T06:09:22.562Z,84.38
2023-05-19T06:10:24.594Z,84.38
2023-05-19T06:11:23.233Z,84.38
2023-05-19T06:12:22.257Z,84.38
2023-05-19T06:13:22.054Z,84.38
2023-05-19T06:14:22.573Z,84.38
2023-05-19T06:15:22.746Z,84.38
2023-05-19T06:16:22.549Z,84.38
2023-05-19T06:17:22.022Z,84.38
2023-05-19T06:18:21.584Z,84.38
2023-05-19T06:19:21.740Z,84.38
2023-05-19T06:20:21.555Z,90.00
2023-05-19T06:21:21.511Z,90.00
2023-05-19T06:22:21.544Z,101.25
2023-05-19T06:23:21.820Z,101.25
2023-05-19T06:24:21.509Z,106.88
2023-05-19T06:25:21.868Z,106.88
2023-05-19T06:26:21.522Z,106.88
2023-05-19T06:27:21.666Z,123.75
2023-05-19T06:28:21.518Z,146.25
2023-05-19T06:29:23.421Z,174.38
2023-05-19T06:30:21.534Z,219.38
2023-05-19T06:31:21.804Z,174.38
2023-05-19T06:32:22.153Z,174.38
2023-05-19T06:33:22.460Z,202.50
2023-05-19T06:34:22.392Z,185.62
2023-05-19T06:35:23.247Z,163.12
2023-05-19T06:36:22.117Z,135.00
2023-05-19T06:37:21.459Z,106.88
2023-05-19T06:38:22.867Z,101.25
2023-05-19T06:39:21.474Z,112.50
2023-05-19T06:40:21.517Z,106.88
2023-05-19T06:41:23.059Z,95.62
2023-05-19T06:42:22.082Z,95.62
2023-05-19T06:43:21.858Z,95.62
2023-05-19T06:44:22.122Z,90.00
2023-05-19T06:45:21.334Z,90.00
2023-05-19T06:46:22.921Z,90.00
2023-05-19T06:47:21.366Z,90.00
2023-05-19T06:48:21.271Z,84.38
2023-05-19T06:49:21.397Z,90.00
2023-05-19T06:50:21.641Z,90.00
2023-05-19T06:51:22.834Z,90.00
2023-05-19T06:52:21.251Z,90.00
2023-05-19T06:53:21.250Z,90.00
2023-05-19T06:54:21.291Z,90.00
2023-05-19T06:55:21.252Z,84.38
2023-05-19T06:56:21.255Z,84.38
2023-05-19T06:57:21.311Z,84.38
2023-05-19T06:58:21.251Z,84.38
2023-05-19T06:59:22.702Z,78.75
2023-05-19T07:00:23.098Z,84.38
2023-05-19T07:01:22.760Z,90.00
2023-05-19T07:02:21.137Z,84.38
2023-05-19T07:03:21.327Z,78.75
2023-05-19T07:04:24.474Z,78.75
2023-05-19T07:05:21.160Z,78.75
2023-05-19T07:06:21.308Z,78.75
2023-05-19T07:07:21.096Z,78.75
2023-05-19T07:08:21.078Z,78.75
2023-05-19T07:09:23.677Z,78.75
2023-05-19T07:10:21.398Z,78.75
2023-05-19T07:11:21.033Z,78.75
2023-05-19T07:12:21.268Z,73.12
2023-05-19T07:13:21.009Z,78.75
2023-05-19T07:14:22.934Z,78.75
2023-05-19T07:15:22.987Z,78.75
2023-05-19T07:16:21.225Z,78.75
2023-05-19T07:17:21.064Z,78.75
2023-05-19T07:18:20.982Z,78.75
2023-05-19T07:19:20.997Z,78.75
2023-05-19T07:20:20.923Z,78.75
2023-05-19T07:21:20.946Z,78.75
2023-05-19T07:22:20.956Z,78.75
2023-05-19T07:23:20.903Z,78.75
2023-05-19T07:24:21.387Z,78.75
2023-05-19T07:25:21.169Z,78.75
2023-05-19T07:26:20.936Z,78.75
2023-05-19T07:27:20.938Z,78.75
2023-05-19T07:28:20.846Z,78.75
2023-05-19T07:29:22.362Z,78.75
2023-05-19T07:30:20.850Z,78.75
2023-05-19T07:31:20.945Z,78.75
2023-05-19T07:32:21.003Z,78.75
2023-05-19T07:33:22.755Z,78.75
2023-05-19T07:34:20.761Z,78.75
2023-05-19T07:35:20.791Z,78.75
2023-05-19T07:36:20.808Z,84.38
2023-05-19T07:37:20.763Z,84.38
2023-05-19T07:38:20.741Z,84.38
2023-05-19T07:39:20.829Z,84.38
2023-05-19T07:40:22.684Z,84.38
2023-05-19T07:41:20.799Z,84.38
2023-05-19T07:42:20.739Z,84.38
2023-05-19T07:43:20.704Z,84.38
2023-05-19T07:44:20.666Z,84.38
2023-05-19T07:45:20.743Z,84.38
2023-05-19T07:46:20.752Z,84.38
2023-05-19T07:47:20.896Z,84.38
2023-05-19T07:48:20.651Z,84.38
2023-05-19T07:49:20.617Z,84.38
2023-05-19T07:50:20.643Z,84.38
2023-05-19T07:51:20.602Z,84.38
2023-05-19T07:52:20.614Z,84.38
2023-05-19T07:53:20.601Z,84.38
2023-05-19T07:54:20.742Z,84.38
2023-05-19T07:55:20.608Z,84.38
2023-05-19T07:56:20.557Z,84.38
2023-05-19T07:57:20.540Z,84.38
2023-05-19T07:58:20.526Z,84.38
2023-05-19T07:59:20.487Z,84.38
2023-05-19T08:00:20.569Z,84.38
2023-05-19T08:01:20.586Z,84.38
2023-05-19T08:02:20.523Z,84.38
2023-05-19T08:03:20.798Z,84.38
2023-05-19T08:04:20.598Z,84.38
2023-05-19T08:05:20.453Z,78.75
2023-05-19T08:06:20.442Z,84.38
2023-05-19T08:07:20.462Z,84.38
2023-05-19T08:08:20.696Z,84.38
2023-05-19T08:09:20.463Z,84.38
2023-05-19T08:10:20.359Z,84.38
2023-05-19T08:11:20.340Z,84.38
2023-05-19T08:12:20.403Z,84.38
2023-05-19T08:13:20.410Z,84.38
2023-05-19T08:14:20.489Z,84.38
2023-05-19T08:15:20.498Z,84.38
2023-05-19T08:16:20.429Z,84.38
2023-05-19T08:17:20.282Z,84.38
2023-05-19T08:18:20.356Z,84.38
2023-05-19T08:19:20.363Z,84.38
2023-05-19T08:20:20.306Z,84.38
2023-05-19T08:21:20.246Z,84.38
2023-05-19T08:22:20.588Z,84.38
2023-05-19T08:23:20.261Z,84.38
2023-05-19T08:24:20.232Z,84.38
2023-05-19T08:25:20.348Z,84.38
2023-05-19T08:26:20.216Z,84.38
2023-05-19T08:27:20.181Z,84.38
2023-05-19T08:28:20.342Z,84.38
2023-05-19T08:29:20.234Z,84.38
2023-05-19T08:30:20.234Z,84.38
2023-05-19T08:31:20.354Z,84.38
2023-05-19T08:32:20.133Z,90.00
2023-05-19T08:33:20.169Z,90.00
2023-05-19T08:34:20.107Z,90.00
2023-05-19T08:35:20.166Z,90.00
2023-05-19T08:36:20.088Z,78.75
2023-05-19T08:37:20.120Z,90.00
2023-05-19T08:38:20.134Z,95.62
2023-05-19T08:39:20.148Z,95.62
2023-05-19T08:40:20.042Z,101.25
2023-05-19T08:41:19.978Z,101.25
2023-05-19T08:42:20.046Z,95.62
2023-05-19T08:43:20.123Z,90.00
2023-05-19T08:44:20.030Z,101.25
2023-05-19T08:45:20.035Z,112.50
2023-05-19T08:46:20.044Z,101.25
2023-05-19T08:47:19.994Z,101.25
2023-05-19T08:48:19.974Z,112.50
2023-05-19T08:49:19.963Z,123.75
2023-05-19T08:50:19.969Z,123.75
2023-05-19T08:51:19.963Z,135.00
2023-05-19T08:52:19.983Z,140.62
2023-05-19T08:53:32.376Z,168.75
2023-05-19T08:54:20.919Z,168.75
2023-05-19T08:55:19.912Z,157.50
2023-05-19T08:56:19.970Z,151.88
2023-05-19T08:57:19.918Z,157.50
2023-05-19T08:58:19.845Z,174.38
2023-05-19T08:59:19.864Z,163.12
2023-05-19T09:00:19.802Z,168.75
2023-05-19T09:01:19.940Z,196.88
2023-05-19T09:02:19.847Z,202.50
2023-05-19T09:03:23.752Z,191.25
2023-05-19T09:04:19.995Z,196.88
2023-05-19T09:05:20.058Z,196.88
2023-05-19T09:06:20.004Z,191.25
2023-05-19T09:07:19.753Z,185.62
2023-05-19T09:08:19.726Z,180.00
2023-05-19T09:09:19.717Z,168.75
2023-05-19T09:10:19.907Z,174.38
2023-05-19T09:11:21.702Z,180.00
2023-05-19T09:12:19.737Z,185.62
2023-05-19T09:13:19.666Z,174.38
2023-05-19T09:14:19.654Z,168.75
2023-05-19T09:15:19.728Z,163.12
2023-05-19T09:16:19.673Z,163.12
2023-05-19T09:17:19.720Z,163.12
2023-05-19T09:18:21.588Z,174.38
2023-05-19T09:19:19.678Z,180.00
2023-05-19T09:20:19.729Z,174.38
2023-05-19T09:21:19.615Z,180.00
2023-05-19T09:22:19.597Z,191.25
2023-05-19T09:23:19.634Z,180.00
2023-05-19T09:24:19.590Z,185.62
2023-05-19T09:25:19.581Z,180.00
2023-05-19T09:26:19.606Z,196.88
2023-05-19T09:27:19.545Z,213.75
2023-05-19T09:28:19.502Z,174.38
2023-05-19T09:29:19.585Z,174.38
2023-05-19T09:30:19.628Z,180.00
2023-05-19T09:31:19.521Z,163.12
2023-05-19T09:32:19.733Z,151.88
2023-05-19T09:33:19.703Z,168.75
2023-05-19T09:34:19.553Z,180.00
2023-05-19T09:35:19.475Z,174.38
2023-05-19T09:36:19.468Z,185.62
2023-05-19T09:37:19.439Z,185.62
2023-05-19T09:38:19.463Z,168.75
2023-05-19T09:39:19.670Z,157.50
2023-05-19T09:40:19.417Z,163.12
2023-05-19T09:41:19.368Z,196.88
2023-05-19T09:42:19.374Z,196.88
2023-05-19T09:43:19.452Z,202.50
2023-05-19T09:44:19.412Z,185.62
2023-05-19T09:45:19.312Z,196.88
2023-05-19T09:46:19.464Z,208.12
2023-05-19T09:47:19.334Z,213.75
2023-05-19T09:48:19.407Z,213.75
2023-05-19T09:49:19.256Z,219.38
2023-05-19T09:50:19.302Z,219.38
2023-05-19T09:51:19.278Z,213.75
2023-05-19T09:52:19.197Z,185.62
2023-05-19T09:53:19.587Z,191.25
2023-05-19T09:54:20.557Z,185.62
2023-05-19T09:55:19.237Z,208.12
2023-05-19T09:56:19.221Z,208.12
2023-05-19T09:57:19.223Z,196.88
2023-05-19T09:58:19.244Z,185.62
2023-05-19T09:59:19.186Z,163.12
2023-05-19T10:00:19.183Z,185.62
2023-05-19T10:01:19.393Z,196.88
2023-05-19T10:02:19.103Z,196.88
2023-05-19T10:03:19.212Z,196.88
2023-05-19T10:04:19.143Z,196.88
2023-05-19T10:05:19.182Z,168.75
2023-05-19T10:06:19.150Z,180.00
2023-05-19T10:07:19.176Z,191.25
2023-05-19T10:08:19.111Z,191.25
2023-05-19T10:09:19.076Z,196.88
2023-05-19T10:10:19.126Z,185.62
2023-05-19T10:11:19.156Z,157.50
2023-05-19T10:12:19.088Z,140.62
2023-05-19T10:13:18.998Z,123.75
2023-05-19T10:14:19.082Z,123.75
2023-05-19T10:15:20.754Z,129.38
2023-05-19T10:16:19.072Z,123.75
2023-05-19T10:17:18.952Z,118.12
2023-05-19T10:18:18.933Z,118.12
2023-05-19T10:19:19.009Z,123.75
2023-05-19T10:20:19.059Z,101.25
2023-05-19T10:21:18.992Z,112.50
2023-05-19T10:22:19.204Z,106.88
2023-05-19T10:23:18.887Z,95.62
2023-05-19T10:24:18.942Z,95.62
2023-05-19T10:25:18.943Z,101.25
2023-05-19T10:26:18.905Z,106.88
2023-05-19T10:27:18.893Z,118.12
2023-05-19T10:28:20.371Z,118.12
2023-05-19T10:29:18.936Z,118.12
2023-05-19T10:30:18.918Z,118.12
2023-05-19T10:31:18.802Z,118.12
2023-05-19T10:32:18.834Z,118.12
2023-05-19T10:33:18.855Z,118.12
2023-05-19T10:34:18.822Z,123.75
2023-05-19T10:35:20.824Z,123.75
2023-05-19T10:36:18.857Z,123.75
2023-05-19T10:37:18.736Z,123.75
2023-05-19T10:38:18.783Z,129.38
2023-05-19T10:39:18.824Z,135.00
2023-05-19T10:40:18.788Z,146.25
2023-05-19T10:41:18.718Z,140.62
2023-05-19T10:42:18.958Z,123.75
2023-05-19T10:43:18.721Z,112.50
2023-05-19T10:44:18.728Z,123.75
2023-05-19T10:45:18.681Z,118.12
2023-05-19T10:46:18.630Z,118.12
2023-05-19T10:47:18.801Z,123.75
2023-05-19T10:48:18.682Z,129.38
2023-05-19T10:49:18.791Z,140.62
2023-05-19T10:50:18.602Z,157.50
2023-05-19T10:51:18.628Z,163.12
2023-05-19T10:52:18.647Z,163.12
2023-05-19T10:53:18.613Z,163.12
2023-05-19T10:54:18.673Z,157.50
2023-05-19T10:55:18.505Z,140.62
2023-05-19T10:56:18.622Z,135.00
2023-05-19T10:57:18.576Z,106.88
2023-05-19T10:58:18.612Z,106.88
2023-05-19T10:59:18.575Z,112.50
2023-05-19T11:00:18.518Z,106.88
2023-05-19T11:01:18.582Z,101.25
2023-05-19T11:02:18.559Z,118.12
2023-05-19T11:03:18.789Z,101.25
2023-05-19T11:04:18.532Z,135.00
2023-05-19T11:05:18.508Z,106.88
2023-05-19T11:06:18.440Z,118.12
2023-05-19T11:07:18.519Z,140.62
2023-05-19T11:08:18.457Z,157.50
2023-05-19T11:09:19.503Z,174.38
2023-05-19T11:10:18.595Z,213.75
2023-05-19T11:11:18.430Z,208.12
2023-05-19T11:12:18.464Z,185.62
2023-05-19T11:13:18.352Z,180.00
2023-05-19T11:14:18.357Z,174.38
2023-05-19T11:15:18.335Z,168.75
2023-05-19T11:16:18.380Z,163.12
2023-05-19T11:17:20.288Z,168.75
2023-05-19T11:18:18.347Z,174.38
2023-05-19T11:19:18.346Z,163.12
2023-05-19T11:20:18.318Z,157.50
2023-05-19T11:21:18.317Z,140.62
2023-05-19T11:22:18.356Z,118.12
2023-05-19T11:23:18.315Z,106.88
2023-05-19T11:24:20.213Z,101.25
2023-05-19T11:25:18.320Z,106.88
2023-05-19T11:26:18.241Z,106.88
2023-05-19T11:27:18.220Z,118.12
2023-05-19T11:28:18.161Z,163.12
2023-05-19T11:29:18.172Z,157.50
2023-05-19T11:30:18.222Z,168.75
2023-05-19T11:31:18.413Z,174.38
2023-05-19T11:32:18.176Z,191.25
2023-05-19T11:33:18.176Z,213.75
2023-05-19T11:34:18.159Z,230.62
2023-05-19T11:35:18.156Z,247.50
2023-05-19T11:36:18.188Z,253.12
2023-05-19T11:37:18.132Z,241.88
2023-05-19T11:38:18.138Z,241.88
2023-05-19T11:39:18.217Z,191.25
2023-05-19T11:40:18.176Z,196.88
2023-05-19T11:41:19.529Z,191.25
2023-05-19T11:42:18.112Z,185.62
2023-05-19T11:43:18.054Z,174.38
2023-05-19T11:44:18.057Z,123.75
2023-05-19T11:45:18.078Z,129.38
2023-05-19T11:46:18.488Z,146.25
2023-05-19T11:47:18.047Z,151.88
2023-05-19T11:48:18.103Z,135.00
2023-05-19T11:49:17.994Z,112.50
2023-05-19T11:50:18.031Z,146.25
2023-05-19T11:51:17.959Z,118.12
2023-05-19T11:52:18.114Z,140.62
2023-05-19T11:53:20.172Z,101.25
2023-05-19T11:54:17.995Z,95.62
2023-05-19T11:55:18.011Z,90.00
2023-05-19T11:56:17.994Z,90.00
2023-05-19T11:57:17.904Z,90.00
2023-05-19T11:58:17.864Z,118.12
2023-05-19T11:59:19.881Z,106.88
2023-05-19T12:00:17.874Z,118.12
2023-05-19T12:01:17.877Z,123.75
2023-05-19T12:02:17.920Z,123.75
2023-05-19T12:03:17.918Z,118.12
2023-05-19T12:04:17.852Z,123.75
2023-05-19T12:05:17.958Z,106.88
2023-05-19T12:06:19.843Z,95.62
2023-05-19T12:07:17.788Z,95.62
2023-05-19T12:08:17.848Z,95.62
2023-05-19T12:09:19.624Z,106.88
2023-05-19T12:10:17.770Z,118.12
2023-05-19T12:11:18.157Z,118.12
2023-05-19T12:12:17.760Z,123.75
2023-05-19T12:13:17.925Z,112.50
2023-05-19T12:14:17.714Z,129.38
2023-05-19T12:15:17.854Z,118.12
2023-05-19T12:16:17.757Z,135.00
2023-05-19T12:17:17.709Z,101.25
2023-05-19T12:18:17.695Z,101.25
2023-05-19T12:19:17.770Z,106.88
2023-05-19T12:20:17.742Z,106.88
2023-05-19T12:21:17.694Z,112.50
2023-05-19T12:22:17.667Z,118.12
2023-05-19T12:23:17.741Z,112.50
2023-05-19T12:24:17.577Z,112.50
2023-05-19T12:25:17.604Z,118.12
2023-05-19T12:26:17.577Z,123.75
2023-05-19T12:27:21.106Z,157.50
2023-05-19T12:28:17.602Z,157.50
2023-05-19T12:29:17.531Z,157.50
2023-05-19T12:30:17.549Z,129.38
2023-05-19T12:31:17.554Z,135.00
2023-05-19T12:32:17.552Z,168.75
2023-05-19T12:33:17.492Z,180.00
2023-05-19T12:34:17.657Z,174.38
2023-05-19T12:35:17.479Z,180.00
2023-05-19T12:36:17.462Z,180.00
2023-05-19T12:37:17.507Z,196.88
2023-05-19T12:38:17.474Z,208.12
2023-05-19T12:39:18.431Z,191.25
2023-05-19T12:40:17.437Z,219.38
2023-05-19T12:41:17.494Z,202.50
2023-05-19T12:42:17.552Z,196.88
2023-05-19T12:43:17.417Z,202.50
2023-05-19T12:44:17.427Z,196.88
2023-05-19T12:45:17.357Z,196.88
2023-05-19T12:46:17.415Z,191.25
2023-05-19T12:47:17.340Z,191.25
2023-05-19T12:48:17.392Z,202.50
2023-05-19T12:49:17.792Z,230.62
2023-05-19T12:50:17.287Z,230.62
2023-05-19T12:51:17.371Z,225.00